sensor_id;sensor_type;location;lat;lon;timestamp;P1;durP1;ratioP1;P2;durP2;ratioP2
16998;SDS011;10211;49.476;11.010;2022-12-29T00:00:06;1.47;;;1.33;;
16998;SDS011;10211;49.476;11.010;2022-12-29T00:02:34;1.30;;;1.10;;
16998;SDS011;10211;49.476;11.010;2022-12-29T00:05:02;4.20;;;1.23;;
16998;SDS011;10211;49.476;11.010;2022-12-29T00:07:29;1.33;;;1.10;;
16998;SDS011;10211;49.476;11.010;2022-12-29T00:09:56;1.53;;;1.27;;
16998;SDS011;10211;49.476;11.010;2022-12-29T00:12:24;1.63;;;1.13;;
16998;SDS011;10211;49.476;11.010;2022-12-29T00:15:10;1.40;;;1.30;;
16998;SDS011;10211;49.476;11.010;2022-12-29T00:17:54;3.03;;;1.30;;
16998;SDS011;10211;49.476;11.010;2022-12-29T00:20:22;1.17;;;1.10;;
16998;SDS011;10211;49.476;11.010;2022-12-29T00:23:08;2.87;;;1.40;;
16998;SDS011;10211;49.476;11.010;2022-12-29T00:25:52;1.50;;;1.30;;
16998;SDS011;10211;49.476;11.010;2022-12-29T00:28:36;2.33;;;1.23;;
16998;SDS011;10211;49.476;11.010;2022-12-29T00:31:20;2.23;;;0.87;;
16998;SDS011;10211;49.476;11.010;2022-12-29T00:34:06;1.67;;;1.30;;
16998;SDS011;10211;49.476;11.010;2022-12-29T00:36:53;1.27;;;1.17;;
16998;SDS011;10211;49.476;11.010;2022-12-29T00:39:19;1.87;;;1.50;;
16998;SDS011;10211;49.476;11.010;2022-12-29T00:42:04;1.90;;;1.20;;
16998;SDS011;10211;49.476;11.010;2022-12-29T00:45:00;2.03;;;1.63;;
16998;SDS011;10211;49.476;11.010;2022-12-29T00:47:27;2.80;;;1.17;;
16998;SDS011;10211;49.476;11.010;2022-12-29T00:49:54;4.73;;;1.60;;
16998;SDS011;10211;49.476;11.010;2022-12-29T00:52:21;1.73;;;1.07;;
16998;SDS011;10211;49.476;11.010;2022-12-29T00:54:49;4.73;;;1.50;;
16998;SDS011;10211;49.476;11.010;2022-12-29T00:57:16;2.73;;;1.40;;
16998;SDS011;10211;49.476;11.010;2022-12-29T00:59:42;1.47;;;1.10;;
16998;SDS011;10211;49.476;11.010;2022-12-29T01:02:10;1.93;;;1.20;;
16998;SDS011;10211;49.476;11.010;2022-12-29T01:04:37;1.40;;;1.30;;
16998;SDS011;10211;49.476;11.010;2022-12-29T01:07:04;1.50;;;1.40;;
16998;SDS011;10211;49.476;11.010;2022-12-29T01:09:32;1.77;;;1.40;;
16998;SDS011;10211;49.476;11.010;2022-12-29T01:12:16;1.50;;;1.40;;
16998;SDS011;10211;49.476;11.010;2022-12-29T01:15:03;2.07;;;1.40;;
16998;SDS011;10211;49.476;11.010;2022-12-29T01:17:30;1.90;;;1.27;;
16998;SDS011;10211;49.476;11.010;2022-12-29T01:19:57;1.57;;;1.13;;
16998;SDS011;10211;49.476;11.010;2022-12-29T01:22:24;2.20;;;1.20;;
16998;SDS011;10211;49.476;11.010;2022-12-29T01:24:52;2.93;;;1.40;;
16998;SDS011;10211;49.476;11.010;2022-12-29T01:27:18;1.33;;;1.20;;
16998;SDS011;10211;49.476;11.010;2022-12-29T01:29:45;1.10;;;1.00;;
16998;SDS011;10211;49.476;11.010;2022-12-29T01:32:12;1.93;;;1.20;;
16998;SDS011;10211;49.476;11.010;2022-12-29T01:34:38;1.33;;;1.13;;
16998;SDS011;10211;49.476;11.010;2022-12-29T01:37:05;1.53;;;1.10;;
16998;SDS011;10211;49.476;11.010;2022-12-29T01:39:32;1.63;;;1.17;;
16998;SDS011;10211;49.476;11.010;2022-12-29T01:42:00;1.67;;;1.00;;
16998;SDS011;10211;49.476;11.010;2022-12-29T01:44:47;2.23;;;1.17;;
16998;SDS011;10211;49.476;11.010;2022-12-29T01:47:20;2.63;;;1.00;;
16998;SDS011;10211;49.476;11.010;2022-12-29T01:49:54;1.83;;;1.13;;
16998;SDS011;10211;49.476;11.010;2022-12-29T01:52:24;1.40;;;1.30;;
16998;SDS011;10211;49.476;11.010;2022-12-29T01:54:53;1.60;;;1.00;;
16998;SDS011;10211;49.476;11.010;2022-12-29T01:57:23;2.87;;;1.70;;
16998;SDS011;10211;49.476;11.010;2022-12-29T01:59:53;1.10;;;1.00;;
16998;SDS011;10211;49.476;11.010;2022-12-29T02:02:24;1.53;;;1.10;;
16998;SDS011;10211;49.476;11.010;2022-12-29T02:04:51;2.23;;;1.20;;
16998;SDS011;10211;49.476;11.010;2022-12-29T02:07:20;1.10;;;1.00;;
16998;SDS011;10211;49.476;11.010;2022-12-29T02:09:50;1.90;;;1.50;;
16998;SDS011;10211;49.476;11.010;2022-12-29T02:12:18;1.70;;;1.17;;
16998;SDS011;10211;49.476;11.010;2022-12-29T02:14:48;1.93;;;1.50;;
16998;SDS011;10211;49.476;11.010;2022-12-29T02:17:20;1.40;;;1.10;;
16998;SDS011;10211;49.476;11.010;2022-12-29T02:20:07;1.10;;;1.00;;
16998;SDS011;10211;49.476;11.010;2022-12-29T02:22:59;2.20;;;1.27;;
16998;SDS011;10211;49.476;11.010;2022-12-29T02:25:50;1.27;;;1.17;;
16998;SDS011;10211;49.476;11.010;2022-12-29T02:28:45;1.37;;;1.00;;
16998;SDS011;10211;49.476;11.010;2022-12-29T02:31:23;1.50;;;1.23;;
16998;SDS011;10211;49.476;11.010;2022-12-29T02:34:00;2.43;;;0.97;;
16998;SDS011;10211;49.476;11.010;2022-12-29T02:36:37;2.03;;;1.47;;
16998;SDS011;10211;49.476;11.010;2022-12-29T02:39:12;2.10;;;1.20;;
16998;SDS011;10211;49.476;11.010;2022-12-29T02:41:49;3.13;;;1.40;;
16998;SDS011;10211;49.476;11.010;2022-12-29T02:44:25;1.47;;;1.20;;
16998;SDS011;10211;49.476;11.010;2022-12-29T02:46:58;1.40;;;1.10;;
16998;SDS011;10211;49.476;11.010;2022-12-29T02:49:36;1.80;;;1.10;;
16998;SDS011;10211;49.476;11.010;2022-12-29T02:52:06;2.97;;;1.37;;
16998;SDS011;10211;49.476;11.010;2022-12-29T02:54:36;1.20;;;1.10;;
16998;SDS011;10211;49.476;11.010;2022-12-29T02:57:09;1.40;;;1.30;;
16998;SDS011;10211;49.476;11.010;2022-12-29T02:59:38;1.57;;;1.30;;
16998;SDS011;10211;49.476;11.010;2022-12-29T03:02:13;2.63;;;1.20;;
16998;SDS011;10211;49.476;11.010;2022-12-29T03:05:05;2.93;;;1.20;;
16998;SDS011;10211;49.476;11.010;2022-12-29T03:07:43;1.83;;;1.10;;
16998;SDS011;10211;49.476;11.010;2022-12-29T03:10:25;2.70;;;0.90;;
16998;SDS011;10211;49.476;11.010;2022-12-29T03:13:02;1.50;;;1.30;;
16998;SDS011;10211;49.476;11.010;2022-12-29T03:15:51;2.77;;;0.83;;
16998;SDS011;10211;49.476;11.010;2022-12-29T03:18:45;1.17;;;1.10;;
16998;SDS011;10211;49.476;11.010;2022-12-29T03:21:18;1.20;;;1.10;;
16998;SDS011;10211;49.476;11.010;2022-12-29T03:24:12;1.70;;;1.27;;
16998;SDS011;10211;49.476;11.010;2022-12-29T03:26:40;2.10;;;1.40;;
16998;SDS011;10211;49.476;11.010;2022-12-29T03:29:08;1.47;;;1.30;;
16998;SDS011;10211;49.476;11.010;2022-12-29T03:31:36;1.40;;;1.30;;
16998;SDS011;10211;49.476;11.010;2022-12-29T03:34:05;1.00;;;1.00;;
16998;SDS011;10211;49.476;11.010;2022-12-29T03:36:36;0.83;;;0.80;;
16998;SDS011;10211;49.476;11.010;2022-12-29T03:39:09;1.17;;;1.10;;
16998;SDS011;10211;49.476;11.010;2022-12-29T03:41:37;2.57;;;1.10;;
16998;SDS011;10211;49.476;11.010;2022-12-29T03:44:08;1.40;;;1.30;;
16998;SDS011;10211;49.476;11.010;2022-12-29T03:46:35;2.47;;;1.03;;
16998;SDS011;10211;49.476;11.010;2022-12-29T03:49:02;2.33;;;1.33;;
16998;SDS011;10211;49.476;11.010;2022-12-29T03:51:30;3.30;;;0.97;;
16998;SDS011;10211;49.476;11.010;2022-12-29T03:53:57;2.33;;;1.37;;
16998;SDS011;10211;49.476;11.010;2022-12-29T03:56:23;2.33;;;1.13;;
16998;SDS011;10211;49.476;11.010;2022-12-29T03:58:50;1.10;;;1.00;;
16998;SDS011;10211;49.476;11.010;2022-12-29T04:01:17;1.73;;;1.13;;
16998;SDS011;10211;49.476;11.010;2022-12-29T04:03:44;1.20;;;1.10;;
16998;SDS011;10211;49.476;11.010;2022-12-29T04:06:10;1.93;;;1.37;;
16998;SDS011;10211;49.476;11.010;2022-12-29T04:08:38;1.57;;;1.00;;
16998;SDS011;10211;49.476;11.010;2022-12-29T04:11:05;0.90;;;0.90;;
16998;SDS011;10211;49.476;11.010;2022-12-29T04:13:32;1.17;;;1.07;;
16998;SDS011;10211;49.476;11.010;2022-12-29T04:15:58;1.57;;;1.03;;
16998;SDS011;10211;49.476;11.010;2022-12-29T04:18:26;2.50;;;1.37;;
16998;SDS011;10211;49.476;11.010;2022-12-29T04:20:53;1.60;;;1.00;;
16998;SDS011;10211;49.476;11.010;2022-12-29T04:23:25;0.90;;;0.90;;
16998;SDS011;10211;49.476;11.010;2022-12-29T04:25:53;1.40;;;1.30;;
16998;SDS011;10211;49.476;11.010;2022-12-29T04:28:20;2.17;;;1.20;;
16998;SDS011;10211;49.476;11.010;2022-12-29T04:30:47;2.40;;;1.20;;
16998;SDS011;10211;49.476;11.010;2022-12-29T04:33:14;1.90;;;1.00;;
16998;SDS011;10211;49.476;11.010;2022-12-29T04:35:41;3.53;;;1.27;;
16998;SDS011;10211;49.476;11.010;2022-12-29T04:38:08;3.90;;;1.67;;
16998;SDS011;10211;49.476;11.010;2022-12-29T04:40:35;2.50;;;1.30;;
16998;SDS011;10211;49.476;11.010;2022-12-29T04:43:04;1.27;;;1.13;;
16998;SDS011;10211;49.476;11.010;2022-12-29T04:45:31;1.57;;;0.93;;
16998;SDS011;10211;49.476;11.010;2022-12-29T04:47:58;5.13;;;0.90;;
16998;SDS011;10211;49.476;11.010;2022-12-29T04:50:25;3.17;;;1.00;;
16998;SDS011;10211;49.476;11.010;2022-12-29T04:52:51;4.57;;;1.10;;
16998;SDS011;10211;49.476;11.010;2022-12-29T04:55:18;2.10;;;1.10;;
16998;SDS011;10211;49.476;11.010;2022-12-29T04:57:45;1.03;;;1.03;;
16998;SDS011;10211;49.476;11.010;2022-12-29T05:00:14;2.07;;;1.37;;
16998;SDS011;10211;49.476;11.010;2022-12-29T05:02:40;1.40;;;1.13;;
16998;SDS011;10211;49.476;11.010;2022-12-29T05:05:07;1.60;;;1.03;;
16998;SDS011;10211;49.476;11.010;2022-12-29T05:07:34;1.20;;;1.10;;
16998;SDS011;10211;49.476;11.010;2022-12-29T05:10:01;5.30;;;1.20;;
16998;SDS011;10211;49.476;11.010;2022-12-29T05:12:29;3.63;;;1.67;;
16998;SDS011;10211;49.476;11.010;2022-12-29T05:14:56;5.70;;;1.20;;
16998;SDS011;10211;49.476;11.010;2022-12-29T05:17:24;3.50;;;1.53;;
16998;SDS011;10211;49.476;11.010;2022-12-29T05:19:51;2.63;;;1.43;;
16998;SDS011;10211;49.476;11.010;2022-12-29T05:22:18;1.57;;;1.47;;
16998;SDS011;10211;49.476;11.010;2022-12-29T05:24:45;1.27;;;1.10;;
16998;SDS011;10211;49.476;11.010;2022-12-29T05:27:11;1.00;;;0.90;;
16998;SDS011;10211;49.476;11.010;2022-12-29T05:29:38;1.40;;;1.13;;
16998;SDS011;10211;49.476;11.010;2022-12-29T05:32:06;2.13;;;1.10;;
16998;SDS011;10211;49.476;11.010;2022-12-29T05:34:34;2.10;;;1.00;;
16998;SDS011;10211;49.476;11.010;2022-12-29T05:37:01;1.33;;;1.00;;
16998;SDS011;10211;49.476;11.010;2022-12-29T05:39:28;2.97;;;1.23;;
16998;SDS011;10211;49.476;11.010;2022-12-29T05:41:55;1.70;;;1.47;;
16998;SDS011;10211;49.476;11.010;2022-12-29T05:44:21;1.27;;;1.17;;
16998;SDS011;10211;49.476;11.010;2022-12-29T05:46:48;1.63;;;1.00;;
16998;SDS011;10211;49.476;11.010;2022-12-29T05:49:15;2.20;;;1.40;;
16998;SDS011;10211;49.476;11.010;2022-12-29T05:51:43;3.40;;;1.70;;
16998;SDS011;10211;49.476;11.010;2022-12-29T05:54:10;4.00;;;1.40;;
16998;SDS011;10211;49.476;11.010;2022-12-29T05:56:37;5.03;;;1.40;;
16998;SDS011;10211;49.476;11.010;2022-12-29T05:59:03;1.90;;;1.50;;
16998;SDS011;10211;49.476;11.010;2022-12-29T06:01:32;3.53;;;1.33;;
16998;SDS011;10211;49.476;11.010;2022-12-29T06:04:15;1.13;;;1.03;;
16998;SDS011;10211;49.476;11.010;2022-12-29T06:06:44;2.33;;;1.23;;
16998;SDS011;10211;49.476;11.010;2022-12-29T06:09:15;1.37;;;1.27;;
16998;SDS011;10211;49.476;11.010;2022-12-29T06:11:43;1.90;;;1.10;;
16998;SDS011;10211;49.476;11.010;2022-12-29T06:14:15;1.63;;;1.20;;
16998;SDS011;10211;49.476;11.010;2022-12-29T06:16:57;1.67;;;1.10;;
16998;SDS011;10211;49.476;11.010;2022-12-29T06:19:40;1.40;;;1.30;;
16998;SDS011;10211;49.476;11.010;2022-12-29T06:22:08;5.07;;;1.10;;
16998;SDS011;10211;49.476;11.010;2022-12-29T06:24:37;2.23;;;1.30;;
16998;SDS011;10211;49.476;11.010;2022-12-29T06:29:52;2.70;;;1.30;;
16998;SDS011;10211;49.476;11.010;2022-12-29T06:32:18;1.70;;;1.23;;
16998;SDS011;10211;49.476;11.010;2022-12-29T06:34:45;3.27;;;1.43;;
16998;SDS011;10211;49.476;11.010;2022-12-29T06:37:13;2.13;;;1.30;;
16998;SDS011;10211;49.476;11.010;2022-12-29T06:39:42;4.50;;;1.67;;
16998;SDS011;10211;49.476;11.010;2022-12-29T06:42:08;7.97;;;1.50;;
16998;SDS011;10211;49.476;11.010;2022-12-29T06:44:35;1.33;;;1.20;;
16998;SDS011;10211;49.476;11.010;2022-12-29T06:47:02;1.83;;;1.10;;
16998;SDS011;10211;49.476;11.010;2022-12-29T06:49:28;2.07;;;1.23;;
16998;SDS011;10211;49.476;11.010;2022-12-29T06:51:55;1.40;;;1.17;;
16998;SDS011;10211;49.476;11.010;2022-12-29T06:54:24;1.70;;;1.60;;
16998;SDS011;10211;49.476;11.010;2022-12-29T06:56:51;3.43;;;1.30;;
16998;SDS011;10211;49.476;11.010;2022-12-29T06:59:18;2.00;;;1.10;;
16998;SDS011;10211;49.476;11.010;2022-12-29T07:01:56;2.90;;;1.03;;
16998;SDS011;10211;49.476;11.010;2022-12-29T07:04:40;2.70;;;1.13;;
16998;SDS011;10211;49.476;11.010;2022-12-29T07:07:07;3.07;;;1.47;;
16998;SDS011;10211;49.476;11.010;2022-12-29T07:09:35;2.67;;;1.30;;
16998;SDS011;10211;49.476;11.010;2022-12-29T07:12:02;1.50;;;1.30;;
16998;SDS011;10211;49.476;11.010;2022-12-29T07:14:28;2.13;;;1.20;;
16998;SDS011;10211;49.476;11.010;2022-12-29T07:16:55;2.10;;;1.37;;
16998;SDS011;10211;49.476;11.010;2022-12-29T07:19:22;1.30;;;1.20;;
16998;SDS011;10211;49.476;11.010;2022-12-29T07:21:49;1.07;;;0.97;;
16998;SDS011;10211;49.476;11.010;2022-12-29T07:24:15;1.73;;;1.20;;
16998;SDS011;10211;49.476;11.010;2022-12-29T07:26:43;1.17;;;1.00;;
16998;SDS011;10211;49.476;11.010;2022-12-29T07:29:10;1.57;;;1.03;;
16998;SDS011;10211;49.476;11.010;2022-12-29T07:31:37;1.83;;;1.13;;
16998;SDS011;10211;49.476;11.010;2022-12-29T07:34:03;3.87;;;1.13;;
16998;SDS011;10211;49.476;11.010;2022-12-29T07:36:30;1.63;;;1.30;;
16998;SDS011;10211;49.476;11.010;2022-12-29T07:38:57;3.23;;;1.20;;
16998;SDS011;10211;49.476;11.010;2022-12-29T07:41:29;1.43;;;1.10;;
16998;SDS011;10211;49.476;11.010;2022-12-29T07:47:07;1.20;;;1.10;;
16998;SDS011;10211;49.476;11.010;2022-12-29T07:49:33;1.50;;;1.07;;
16998;SDS011;10211;49.476;11.010;2022-12-29T07:52:00;4.07;;;1.40;;
16998;SDS011;10211;49.476;11.010;2022-12-29T07:54:27;1.97;;;1.00;;
16998;SDS011;10211;49.476;11.010;2022-12-29T07:56:54;2.13;;;0.90;;
16998;SDS011;10211;49.476;11.010;2022-12-29T07:59:20;1.23;;;0.97;;
16998;SDS011;10211;49.476;11.010;2022-12-29T08:01:47;1.93;;;1.13;;
16998;SDS011;10211;49.476;11.010;2022-12-29T08:04:15;3.60;;;1.40;;
16998;SDS011;10211;49.476;11.010;2022-12-29T08:06:42;2.10;;;1.07;;
16998;SDS011;10211;49.476;11.010;2022-12-29T08:09:16;1.73;;;1.20;;
16998;SDS011;10211;49.476;11.010;2022-12-29T08:11:43;1.27;;;1.10;;
16998;SDS011;10211;49.476;11.010;2022-12-29T08:14:09;2.30;;;1.00;;
16998;SDS011;10211;49.476;11.010;2022-12-29T08:16:39;3.23;;;1.10;;
16998;SDS011;10211;49.476;11.010;2022-12-29T08:19:05;1.47;;;1.20;;
16998;SDS011;10211;49.476;11.010;2022-12-29T08:21:33;1.27;;;1.00;;
16998;SDS011;10211;49.476;11.010;2022-12-29T08:24:00;4.27;;;1.23;;
16998;SDS011;10211;49.476;11.010;2022-12-29T08:26:27;0.90;;;0.90;;
16998;SDS011;10211;49.476;11.010;2022-12-29T08:28:54;1.33;;;1.20;;
16998;SDS011;10211;49.476;11.010;2022-12-29T08:31:21;2.77;;;1.30;;
16998;SDS011;10211;49.476;11.010;2022-12-29T08:33:50;1.30;;;1.20;;
16998;SDS011;10211;49.476;11.010;2022-12-29T08:36:17;1.53;;;1.00;;
16998;SDS011;10211;49.476;11.010;2022-12-29T08:38:45;1.13;;;0.90;;
16998;SDS011;10211;49.476;11.010;2022-12-29T08:41:12;1.63;;;1.10;;
16998;SDS011;10211;49.476;11.010;2022-12-29T08:43:39;0.97;;;0.83;;
16998;SDS011;10211;49.476;11.010;2022-12-29T08:46:05;2.73;;;1.40;;
16998;SDS011;10211;49.476;11.010;2022-12-29T08:48:32;1.83;;;1.00;;
16998;SDS011;10211;49.476;11.010;2022-12-29T08:50:59;1.20;;;0.90;;
16998;SDS011;10211;49.476;11.010;2022-12-29T08:53:26;1.40;;;1.10;;
16998;SDS011;10211;49.476;11.010;2022-12-29T08:55:58;0.80;;;0.80;;
16998;SDS011;10211;49.476;11.010;2022-12-29T08:58:26;1.10;;;1.00;;
16998;SDS011;10211;49.476;11.010;2022-12-29T09:00:53;2.23;;;1.30;;
16998;SDS011;10211;49.476;11.010;2022-12-29T09:03:20;1.73;;;0.90;;
16998;SDS011;10211;49.476;11.010;2022-12-29T09:05:48;2.03;;;1.33;;
16998;SDS011;10211;49.476;11.010;2022-12-29T09:08:15;1.43;;;1.00;;
16998;SDS011;10211;49.476;11.010;2022-12-29T09:10:42;1.50;;;1.00;;
16998;SDS011;10211;49.476;11.010;2022-12-29T09:13:10;0.97;;;0.97;;
16998;SDS011;10211;49.476;11.010;2022-12-29T09:15:38;3.10;;;1.03;;
16998;SDS011;10211;49.476;11.010;2022-12-29T09:18:05;1.10;;;1.00;;
16998;SDS011;10211;49.476;11.010;2022-12-29T09:20:32;1.90;;;1.10;;
16998;SDS011;10211;49.476;11.010;2022-12-29T09:22:59;1.27;;;1.00;;
16998;SDS011;10211;49.476;11.010;2022-12-29T09:25:26;2.83;;;1.10;;
16998;SDS011;10211;49.476;11.010;2022-12-29T09:27:53;1.57;;;1.10;;
16998;SDS011;10211;49.476;11.010;2022-12-29T09:30:22;3.40;;;1.33;;
16998;SDS011;10211;49.476;11.010;2022-12-29T09:32:49;1.97;;;1.17;;
16998;SDS011;10211;49.476;11.010;2022-12-29T09:35:16;1.90;;;1.00;;
16998;SDS011;10211;49.476;11.010;2022-12-29T09:37:43;3.13;;;1.13;;
16998;SDS011;10211;49.476;11.010;2022-12-29T09:40:21;3.00;;;1.13;;
16998;SDS011;10211;49.476;11.010;2022-12-29T09:42:55;0.90;;;0.90;;
16998;SDS011;10211;49.476;11.010;2022-12-29T09:45:33;2.57;;;1.10;;
16998;SDS011;10211;49.476;11.010;2022-12-29T09:48:07;2.00;;;1.10;;
16998;SDS011;10211;49.476;11.010;2022-12-29T09:50:41;3.20;;;1.03;;
16998;SDS011;10211;49.476;11.010;2022-12-29T09:53:14;1.10;;;1.03;;
16998;SDS011;10211;49.476;11.010;2022-12-29T09:55:45;1.90;;;1.03;;
16998;SDS011;10211;49.476;11.010;2022-12-29T09:58:15;0.87;;;0.80;;
16998;SDS011;10211;49.476;11.010;2022-12-29T10:00:50;1.70;;;1.03;;
16998;SDS011;10211;49.476;11.010;2022-12-29T10:03:24;3.63;;;1.30;;
16998;SDS011;10211;49.476;11.010;2022-12-29T10:05:56;1.90;;;1.43;;
16998;SDS011;10211;49.476;11.010;2022-12-29T10:08:29;2.07;;;1.30;;
16998;SDS011;10211;49.476;11.010;2022-12-29T10:11:05;1.63;;;1.47;;
16998;SDS011;10211;49.476;11.010;2022-12-29T10:13:43;2.60;;;1.50;;
16998;SDS011;10211;49.476;11.010;2022-12-29T10:16:29;1.53;;;1.40;;
16998;SDS011;10211;49.476;11.010;2022-12-29T10:21:55;2.57;;;1.50;;
16998;SDS011;10211;49.476;11.010;2022-12-29T10:24:29;2.37;;;1.50;;
16998;SDS011;10211;49.476;11.010;2022-12-29T10:26:59;3.87;;;2.07;;
16998;SDS011;10211;49.476;11.010;2022-12-29T10:29:28;2.60;;;2.00;;
16998;SDS011;10211;49.476;11.010;2022-12-29T10:32:02;2.07;;;1.80;;
16998;SDS011;10211;49.476;11.010;2022-12-29T10:34:33;5.13;;;1.80;;
16998;SDS011;10211;49.476;11.010;2022-12-29T10:37:03;7.33;;;2.40;;
16998;SDS011;10211;49.476;11.010;2022-12-29T10:39:38;2.80;;;2.13;;
16998;SDS011;10211;49.476;11.010;2022-12-29T10:42:13;2.73;;;1.70;;
16998;SDS011;10211;49.476;11.010;2022-12-29T10:44:43;2.30;;;1.70;;
16998;SDS011;10211;49.476;11.010;2022-12-29T10:47:13;4.60;;;1.87;;
16998;SDS011;10211;49.476;11.010;2022-12-29T10:49:42;2.77;;;1.70;;
16998;SDS011;10211;49.476;11.010;2022-12-29T10:52:13;1.30;;;1.20;;
16998;SDS011;10211;49.476;11.010;2022-12-29T10:54:43;1.57;;;1.30;;
16998;SDS011;10211;49.476;11.010;2022-12-29T10:57:14;2.17;;;1.50;;
16998;SDS011;10211;49.476;11.010;2022-12-29T10:59:49;3.70;;;1.77;;
16998;SDS011;10211;49.476;11.010;2022-12-29T11:02:24;4.43;;;1.17;;
16998;SDS011;10211;49.476;11.010;2022-12-29T11:05:02;2.27;;;1.40;;
16998;SDS011;10211;49.476;11.010;2022-12-29T11:07:34;3.33;;;1.43;;
16998;SDS011;10211;49.476;11.010;2022-12-29T11:10:17;3.00;;;1.47;;
16998;SDS011;10211;49.476;11.010;2022-12-29T11:12:56;2.10;;;1.50;;
16998;SDS011;10211;49.476;11.010;2022-12-29T11:15:24;1.97;;;1.50;;
16998;SDS011;10211;49.476;11.010;2022-12-29T11:17:53;1.80;;;1.63;;
16998;SDS011;10211;49.476;11.010;2022-12-29T11:20:28;2.33;;;1.10;;
16998;SDS011;10211;49.476;11.010;2022-12-29T11:22:57;4.57;;;1.50;;
16998;SDS011;10211;49.476;11.010;2022-12-29T11:25:24;2.67;;;1.47;;
16998;SDS011;10211;49.476;11.010;2022-12-29T11:27:54;3.17;;;1.50;;
16998;SDS011;10211;49.476;11.010;2022-12-29T11:30:23;2.87;;;1.40;;
16998;SDS011;10211;49.476;11.010;2022-12-29T11:32:50;2.20;;;1.73;;
16998;SDS011;10211;49.476;11.010;2022-12-29T11:35:29;1.30;;;1.20;;
16998;SDS011;10211;49.476;11.010;2022-12-29T11:37:57;2.30;;;2.07;;
16998;SDS011;10211;49.476;11.010;2022-12-29T11:40:25;1.90;;;1.80;;
16998;SDS011;10211;49.476;11.010;2022-12-29T11:42:53;2.27;;;1.67;;
16998;SDS011;10211;49.476;11.010;2022-12-29T11:45:22;3.23;;;1.63;;
16998;SDS011;10211;49.476;11.010;2022-12-29T11:47:52;3.37;;;1.83;;
16998;SDS011;10211;49.476;11.010;2022-12-29T11:50:21;2.30;;;1.60;;
16998;SDS011;10211;49.476;11.010;2022-12-29T11:52:50;2.97;;;1.83;;
16998;SDS011;10211;49.476;11.010;2022-12-29T11:55:24;1.60;;;1.47;;
16998;SDS011;10211;49.476;11.010;2022-12-29T11:57:52;3.27;;;1.47;;
16998;SDS011;10211;49.476;11.010;2022-12-29T12:00:23;1.47;;;1.30;;
16998;SDS011;10211;49.476;11.010;2022-12-29T12:02:54;2.73;;;1.90;;
16998;SDS011;10211;49.476;11.010;2022-12-29T12:05:28;2.90;;;1.70;;
16998;SDS011;10211;49.476;11.010;2022-12-29T12:08:02;2.10;;;1.90;;
16998;SDS011;10211;49.476;11.010;2022-12-29T12:10:36;1.53;;;1.40;;
16998;SDS011;10211;49.476;11.010;2022-12-29T12:13:14;5.17;;;1.50;;
16998;SDS011;10211;49.476;11.010;2022-12-29T12:15:47;2.50;;;1.93;;
16998;SDS011;10211;49.476;11.010;2022-12-29T12:18:21;1.80;;;1.50;;
16998;SDS011;10211;49.476;11.010;2022-12-29T12:20:56;4.63;;;1.50;;
16998;SDS011;10211;49.476;11.010;2022-12-29T12:23:36;1.37;;;1.20;;
16998;SDS011;10211;49.476;11.010;2022-12-29T12:26:11;1.77;;;1.23;;
16998;SDS011;10211;49.476;11.010;2022-12-29T12:28:42;1.57;;;1.47;;
16998;SDS011;10211;49.476;11.010;2022-12-29T12:31:17;1.87;;;0.90;;
16998;SDS011;10211;49.476;11.010;2022-12-29T12:33:55;3.13;;;2.93;;
16998;SDS011;10211;49.476;11.010;2022-12-29T12:36:28;1.40;;;1.30;;
16998;SDS011;10211;49.476;11.010;2022-12-29T12:39:10;4.13;;;1.27;;
16998;SDS011;10211;49.476;11.010;2022-12-29T12:41:47;3.20;;;1.80;;
16998;SDS011;10211;49.476;11.010;2022-12-29T12:44:24;3.63;;;1.30;;
16998;SDS011;10211;49.476;11.010;2022-12-29T12:47:12;1.33;;;1.23;;
16998;SDS011;10211;49.476;11.010;2022-12-29T12:49:57;3.77;;;1.40;;
16998;SDS011;10211;49.476;11.010;2022-12-29T12:52:47;2.03;;;1.10;;
16998;SDS011;10211;49.476;11.010;2022-12-29T12:55:32;3.50;;;2.40;;
16998;SDS011;10211;49.476;11.010;2022-12-29T12:58:09;1.77;;;1.20;;
16998;SDS011;10211;49.476;11.010;2022-12-29T13:00:45;1.83;;;1.73;;
16998;SDS011;10211;49.476;11.010;2022-12-29T13:03:24;1.70;;;1.30;;
16998;SDS011;10211;49.476;11.010;2022-12-29T13:06:06;3.73;;;1.50;;
16998;SDS011;10211;49.476;11.010;2022-12-29T13:08:49;3.37;;;1.00;;
16998;SDS011;10211;49.476;11.010;2022-12-29T13:11:37;4.87;;;4.47;;
16998;SDS011;10211;49.476;11.010;2022-12-29T13:14:19;2.37;;;1.60;;
16998;SDS011;10211;49.476;11.010;2022-12-29T13:16:53;1.80;;;1.40;;
16998;SDS011;10211;49.476;11.010;2022-12-29T13:19:29;7.07;;;6.57;;
16998;SDS011;10211;49.476;11.010;2022-12-29T13:22:07;6.30;;;5.80;;
16998;SDS011;10211;49.476;11.010;2022-12-29T13:24:44;5.03;;;4.73;;
16998;SDS011;10211;49.476;11.010;2022-12-29T13:27:22;4.70;;;4.30;;
16998;SDS011;10211;49.476;11.010;2022-12-29T13:29:57;6.67;;;3.60;;
16998;SDS011;10211;49.476;11.010;2022-12-29T13:32:32;5.27;;;4.13;;
16998;SDS011;10211;49.476;11.010;2022-12-29T13:35:11;1.77;;;1.67;;
16998;SDS011;10211;49.476;11.010;2022-12-29T13:37:52;6.23;;;3.77;;
16998;SDS011;10211;49.476;11.010;2022-12-29T13:40:22;4.30;;;3.80;;
16998;SDS011;10211;49.476;11.010;2022-12-29T13:42:52;3.77;;;3.50;;
16998;SDS011;10211;49.476;11.010;2022-12-29T13:45:20;3.63;;;3.43;;
16998;SDS011;10211;49.476;11.010;2022-12-29T13:47:51;4.40;;;3.70;;
16998;SDS011;10211;49.476;11.010;2022-12-29T13:50:21;5.03;;;2.03;;
16998;SDS011;10211;49.476;11.010;2022-12-29T13:52:55;1.40;;;1.30;;
16998;SDS011;10211;49.476;11.010;2022-12-29T13:55:29;2.20;;;2.00;;
16998;SDS011;10211;49.476;11.010;2022-12-29T13:58:03;1.97;;;1.77;;
16998;SDS011;10211;49.476;11.010;2022-12-29T14:00:36;3.10;;;1.43;;
16998;SDS011;10211;49.476;11.010;2022-12-29T14:03:17;2.00;;;1.80;;
16998;SDS011;10211;49.476;11.010;2022-12-29T14:06:05;1.40;;;1.30;;
16998;SDS011;10211;49.476;11.010;2022-12-29T14:08:41;1.67;;;1.50;;
16998;SDS011;10211;49.476;11.010;2022-12-29T14:11:09;3.83;;;1.63;;
16998;SDS011;10211;49.476;11.010;2022-12-29T14:13:38;2.13;;;1.50;;
16998;SDS011;10211;49.476;11.010;2022-12-29T14:16:06;2.23;;;1.60;;
16998;SDS011;10211;49.476;11.010;2022-12-29T14:18:40;2.73;;;1.30;;
16998;SDS011;10211;49.476;11.010;2022-12-29T14:21:10;1.70;;;1.33;;
16998;SDS011;10211;49.476;11.010;2022-12-29T14:23:49;2.63;;;1.80;;
16998;SDS011;10211;49.476;11.010;2022-12-29T14:26:32;1.60;;;1.50;;
16998;SDS011;10211;49.476;11.010;2022-12-29T14:29:15;1.67;;;1.30;;
16998;SDS011;10211;49.476;11.010;2022-12-29T14:38:07;2.43;;;1.77;;
16998;SDS011;10211;49.476;11.010;2022-12-29T14:44:02;5.03;;;1.70;;
16998;SDS011;10211;49.476;11.010;2022-12-29T14:46:43;1.87;;;1.60;;
16998;SDS011;10211;49.476;11.010;2022-12-29T14:49:14;1.80;;;1.70;;
16998;SDS011;10211;49.476;11.010;2022-12-29T14:51:44;2.60;;;2.03;;
16998;SDS011;10211;49.476;11.010;2022-12-29T14:57:09;2.63;;;1.70;;
16998;SDS011;10211;49.476;11.010;2022-12-29T14:59:41;1.57;;;1.40;;
16998;SDS011;10211;49.476;11.010;2022-12-29T15:02:12;3.13;;;1.57;;
16998;SDS011;10211;49.476;11.010;2022-12-29T15:04:43;2.27;;;1.43;;
16998;SDS011;10211;49.476;11.010;2022-12-29T15:07:12;2.43;;;1.40;;
16998;SDS011;10211;49.476;11.010;2022-12-29T15:09:41;3.13;;;1.27;;
16998;SDS011;10211;49.476;11.010;2022-12-29T15:12:19;2.40;;;1.47;;
16998;SDS011;10211;49.476;11.010;2022-12-29T15:14:50;1.77;;;1.40;;
16998;SDS011;10211;49.476;11.010;2022-12-29T15:17:24;1.47;;;1.30;;
16998;SDS011;10211;49.476;11.010;2022-12-29T15:19:52;2.07;;;1.73;;